Time;durP1;ratioP1;P1;durP2;ratioP2;P2;SDS_P1;SDS_P2;PMS_P1;PMS_P2;Temp;Humidity;BMP_temperature;BMP_pressure;BME280_temperature;BME280_humidity;BME280_pressure;Samples;Min_cycle;Max_cycle;Signal;HPM_P1;HPM_P2
2023/03/07 00:01:29;;;;;;;;;;;4.80;85.40;;;;;;5074130;28;19908;-84
2023/03/07 00:03:55;;;;;;;;;;;4.80;90.80;;;;;;5074381;28;19919;-83
2023/03/07 00:06:20;;;;;;;;;;;4.80;91.60;;;;;;5089102;22;19897;-82
2023/03/07 00:08:50;;;;;;;;;;;4.70;89.10;;;;;;5052044;28;19920;-80
2023/03/07 00:11:15;;;;;;;;;;;4.70;94.20;;;;;;5053455;28;19915;-80
2023/03/07 00:13:41;;;;;;;;;;;4.70;97.60;;;;;;5053628;28;19913;-80
2023/03/07 00:16:07;;;;;;;;;;;4.80;98.40;;;;;;5053022;28;20398;-80
2023/03/07 00:18:33;;;;;;;;;;;4.70;94.20;;;;;;5052451;28;19924;-80
2023/03/07 00:20:59;;;;;;;;;;;4.80;81.90;;;;;;5053189;28;19909;-80
2023/03/07 00:23:25;;;;;;;;;;;4.80;78.30;;;;;;5052337;28;19913;-80
2023/03/07 00:26:04;;;;;;;;;;;4.80;80.90;;;;;;5053663;28;20473;-80
2023/03/07 00:28:30;;;;;;;;;;;4.80;81.10;;;;;;5053000;28;19920;-80
2023/03/07 00:30:59;;;;;;;;;;;4.80;66.60;;;;;;5052746;28;20004;-80
2023/03/07 00:33:25;;;;;;;;;;;4.80;67.90;;;;;;5053293;28;19908;-80
2023/03/07 00:35:54;;;;;;;;;;;4.70;66.40;;;;;;5052899;28;19935;-80
2023/03/07 00:38:20;;;;;;;;;;;4.80;72.50;;;;;;5052921;28;19912;-80
2023/03/07 00:40:45;;;;;;;;;;;4.80;72.80;;;;;;5053098;28;19975;-80
2023/03/07 00:43:10;;;;;;;;;;;4.80;64.40;;;;;;5052477;28;20384;-80
2023/03/07 00:45:36;;;;;;;;;;;4.80;59.50;;;;;;5052644;28;19948;-80
2023/03/07 00:48:01;;;;;;;;;;;4.80;72.20;;;;;;5052489;28;19958;-80
2023/03/07 00:50:27;;;;;;;;;;;4.80;77.90;;;;;;5052512;28;20291;-80
2023/03/07 00:52:52;;;;;;;;;;;4.90;74.20;;;;;;5052334;28;19978;-80
2023/03/07 00:55:19;;;;;;;;;;;4.80;66.30;;;;;;5052656;28;19913;-80
2023/03/07 00:57:44;;;;;;;;;;;4.90;59.60;;;;;;5052391;28;19913;-80
2023/03/07 01:00:10;;;;;;;;;;;4.90;59.00;;;;;;5052502;28;19962;-80
2023/03/07 01:02:36;;;;;;;;;;;4.90;65.30;;;;;;5052238;28;19909;-80
2023/03/07 01:05:01;;;;;;;;;;;4.90;63.10;;;;;;5052759;28;19913;-80
2023/03/07 01:07:26;;;;;;;;;;;4.90;64.40;;;;;;5051179;28;19924;-81
2023/03/07 01:09:52;;;;;;;;;;;4.80;61.50;;;;;;5052516;28;19948;-80
2023/03/07 01:12:17;;;;;;;;;;;4.80;65.60;;;;;;5052407;28;19908;-80
2023/03/07 01:14:43;;;;;;;;;;;4.80;71.50;;;;;;5052594;28;19912;-80
2023/03/07 01:17:08;;;;;;;;;;;4.80;82.60;;;;;;5053230;28;19913;-80
2023/03/07 01:19:34;;;;;;;;;;;4.80;91.80;;;;;;5053946;28;19909;-80
2023/03/07 01:21:59;;;;;;;;;;;4.80;93.70;;;;;;5051788;28;19952;-80
2023/03/07 01:24:25;;;;;;;;;;;4.70;95.00;;;;;;5052351;28;19909;-80
2023/03/07 01:26:50;;;;;;;;;;;4.80;99.80;;;;;;5052240;28;19913;-80
2023/03/07 01:29:16;;;;;;;;;;;4.80;98.00;;;;;;5052415;28;20364;-80
2023/03/07 01:31:41;;;;;;;;;;;4.80;96.40;;;;;;5052746;28;19937;-80
2023/03/07 01:34:07;;;;;;;;;;;4.70;99.90;;;;;;5053607;28;19994;-81
2023/03/07 01:36:33;;;;;;;;;;;4.60;97.90;;;;;;5052675;28;20391;-80
2023/03/07 01:39:01;;;;;;;;;;;4.70;99.90;;;;;;5052417;28;20358;-80
2023/03/07 01:41:30;;;;;;;;;;;4.60;99.90;;;;;;5052001;28;20005;-80
2023/03/07 01:43:57;;;;;;;;;;;4.70;99.90;;;;;;5053706;28;19909;-80
2023/03/07 01:46:32;;;;;;;;;;;4.70;99.90;;;;;;5055895;28;20430;-80
2023/03/07 01:49:10;;;;;;;;;;;4.70;99.90;;;;;;5054865;28;20407;-80
2023/03/07 01:51:36;;;;;;;;;;;4.70;99.90;;;;;;5054190;28;19908;-80
2023/03/07 01:54:03;;;;;;;;;;;4.70;99.90;;;;;;5054357;28;20307;-80
2023/03/07 01:56:29;;;;;;;;;;;4.70;99.90;;;;;;5055625;28;19909;-80
2023/03/07 01:58:54;;;;;;;;;;;4.60;99.90;;;;;;5054355;28;20264;-80
2023/03/07 02:01:20;;;;;;;;;;;4.70;99.90;;;;;;5055505;28;19912;-80
2023/03/07 02:03:50;;;;;;;;;;;4.70;99.90;;;;;;5055734;28;19915;-80
2023/03/07 02:06:16;;;;;;;;;;;4.70;99.90;;;;;;5055529;28;19909;-80
2023/03/07 02:08:42;;;;;;;;;;;4.70;99.90;;;;;;5056123;28;20311;-80
2023/03/07 02:11:07;;;;;;;;;;;4.60;99.90;;;;;;5055772;28;19948;-80
2023/03/07 02:13:34;;;;;;;;;;;4.60;99.90;;;;;;5055445;28;19916;-80
2023/03/07 02:16:00;;;;;;;;;;;4.70;99.90;;;;;;5055502;28;20368;-80
2023/03/07 02:18:28;;;;;;;;;;;4.70;99.90;;;;;;5055638;28;19917;-80
2023/03/07 02:21:08;;;;;;;;;;;4.60;99.90;;;;;;5055578;28;19909;-80
2023/03/07 02:23:36;;;;;;;;;;;4.70;99.90;;;;;;5055175;28;19916;-81
2023/03/07 02:26:09;;;;;;;;;;;4.60;99.90;;;;;;5053795;28;19913;-80
2023/03/07 02:28:35;;;;;;;;;;;4.70;99.90;;;;;;5055158;28;19909;-80
2023/03/07 02:31:03;;;;;;;;;;;4.60;99.90;;;;;;5054834;28;19913;-82
2023/03/07 02:33:28;;;;;;;;;;;4.60;99.90;;;;;;5055046;28;19909;-80
2023/03/07 02:35:55;;;;;;;;;;;4.60;99.90;;;;;;5054934;28;19909;-80
2023/03/07 02:38:22;;;;;;;;;;;4.60;99.90;;;;;;5053490;28;19963;-80
2023/03/07 02:40:47;;;;;;;;;;;4.70;99.90;;;;;;5054735;28;19959;-80
2023/03/07 02:43:13;;;;;;;;;;;4.60;99.90;;;;;;5054934;28;19909;-80
2023/03/07 02:45:38;;;;;;;;;;;4.70;99.90;;;;;;5055189;28;19913;-80
2023/03/07 02:48:04;;;;;;;;;;;4.70;99.90;;;;;;5054786;28;20570;-80
2023/03/07 02:50:29;;;;;;;;;;;4.80;99.90;;;;;;5054631;28;19913;-80
2023/03/07 02:52:55;;;;;;;;;;;4.80;99.90;;;;;;5053058;28;19944;-80
2023/03/07 02:55:21;;;;;;;;;;;4.80;99.90;;;;;;5054494;28;19961;-80
2023/03/07 02:57:47;;;;;;;;;;;4.80;99.90;;;;;;5054418;28;20002;-80
2023/03/07 03:00:13;;;;;;;;;;;4.80;99.90;;;;;;5054426;28;19979;-80
2023/03/07 03:02:39;;;;;;;;;;;4.80;99.90;;;;;;5053879;28;19916;-80
2023/03/07 03:05:05;;;;;;;;;;;4.80;99.90;;;;;;5055522;28;20283;-80
2023/03/07 03:07:30;;;;;;;;;;;4.80;99.90;;;;;;5054927;28;19921;-80
2023/03/07 03:09:56;;;;;;;;;;;4.80;99.90;;;;;;5055029;28;19909;-80
2023/03/07 03:12:22;;;;;;;;;;;4.80;99.90;;;;;;5054488;28;19909;-80
2023/03/07 03:14:47;;;;;;;;;;;4.80;99.90;;;;;;5054199;28;20368;-81
2023/03/07 03:17:13;;;;;;;;;;;4.80;99.90;;;;;;5054020;28;19913;-79
2023/03/07 03:19:38;;;;;;;;;;;4.80;99.90;;;;;;5054192;28;20291;-81
2023/03/07 03:22:04;;;;;;;;;;;4.80;99.90;;;;;;5052497;28;19944;-80
2023/03/07 03:24:29;;;;;;;;;;;4.80;99.90;;;;;;5054069;28;20364;-80
2023/03/07 03:26:56;;;;;;;;;;;4.80;99.90;;;;;;5053913;28;19959;-80
2023/03/07 03:29:22;;;;;;;;;;;4.80;99.90;;;;;;5054059;28;19962;-80
2023/03/07 03:31:47;;;;;;;;;;;4.80;99.90;;;;;;5054062;28;20280;-80
2023/03/07 03:34:13;;;;;;;;;;;4.80;99.90;;;;;;5053269;28;19913;-80
2023/03/07 03:36:38;;;;;;;;;;;4.70;99.90;;;;;;5054072;28;19913;-80
2023/03/07 03:39:06;;;;;;;;;;;4.70;99.90;;;;;;5053768;28;20311;-80
2023/03/07 03:41:31;;;;;;;;;;;4.70;99.90;;;;;;5053736;28;19979;-81
2023/03/07 03:43:57;;;;;;;;;;;4.70;99.90;;;;;;5054272;28;19908;-81
2023/03/07 03:46:22;;;;;;;;;;;4.70;99.90;;;;;;5054072;28;20284;-80
2023/03/07 03:48:54;;;;;;;;;;;4.60;99.90;;;;;;5053580;28;19915;-81
2023/03/07 03:51:20;;;;;;;;;;;4.70;99.90;;;;;;5053628;28;20008;-81
2023/03/07 03:53:46;;;;;;;;;;;4.60;99.90;;;;;;5054625;28;19909;-82
2023/03/07 03:56:12;;;;;;;;;;;4.70;99.90;;;;;;5054074;28;19970;-81
2023/03/07 03:58:39;;;;;;;;;;;4.70;99.90;;;;;;5053248;28;19920;-81
2023/03/07 04:01:06;;;;;;;;;;;4.70;99.90;;;;;;5051979;28;20480;-81
2023/03/07 04:03:37;;;;;;;;;;;4.70;99.90;;;;;;5052026;28;19927;-80
2023/03/07 04:06:03;;;;;;;;;;;4.70;99.90;;;;;;5052873;28;19916;-81
2023/03/07 04:08:29;;;;;;;;;;;4.70;99.90;;;;;;5053485;28;19916;-81
2023/03/07 04:10:54;;;;;;;;;;;4.70;99.90;;;;;;5052056;28;19909;-81
2023/03/07 04:13:20;;;;;;;;;;;4.70;99.90;;;;;;5053427;28;19933;-81
2023/03/07 04:15:45;;;;;;;;;;;4.70;99.90;;;;;;5051809;28;19955;-80
2023/03/07 04:18:11;;;;;;;;;;;4.70;99.90;;;;;;5052822;28;20364;-82
2023/03/07 04:20:36;;;;;;;;;;;4.70;99.90;;;;;;5052058;28;20041;-81
2023/03/07 04:23:02;;;;;;;;;;;4.70;99.90;;;;;;5051524;28;19916;-81
2023/03/07 04:25:27;;;;;;;;;;;4.70;99.90;;;;;;5053038;28;19960;-80
2023/03/07 04:27:53;;;;;;;;;;;4.70;99.90;;;;;;5051514;28;19909;-81
2023/03/07 04:30:18;;;;;;;;;;;4.70;99.90;;;;;;5052678;28;20004;-81
2023/03/07 04:32:44;;;;;;;;;;;4.70;99.90;;;;;;5051315;28;20348;-80
2023/03/07 04:35:09;;;;;;;;;;;4.70;99.90;;;;;;5052882;28;19909;-81
2023/03/07 04:37:35;;;;;;;;;;;4.70;99.90;;;;;;5052572;28;19925;-82
2023/03/07 04:40:00;;;;;;;;;;;4.60;99.90;;;;;;5051490;28;20020;-81
2023/03/07 04:42:26;;;;;;;;;;;4.70;99.90;;;;;;5052762;28;19909;-81
2023/03/07 04:44:51;;;;;;;;;;;4.70;99.90;;;;;;5052767;28;19915;-81
2023/03/07 04:47:17;;;;;;;;;;;4.70;99.90;;;;;;5053677;28;19909;-82
2023/03/07 04:49:42;;;;;;;;;;;4.70;99.90;;;;;;5053885;28;19945;-81
2023/03/07 04:52:08;;;;;;;;;;;4.70;99.90;;;;;;5052412;28;20340;-82
2023/03/07 04:54:33;;;;;;;;;;;4.70;99.90;;;;;;5054088;28;19909;-82
2023/03/07 04:56:59;;;;;;;;;;;4.70;99.90;;;;;;5051788;28;19912;-81
2023/03/07 04:59:24;;;;;;;;;;;4.70;99.90;;;;;;5052800;28;19931;-81
2023/03/07 05:01:49;;;;;;;;;;;4.70;99.90;;;;;;5052550;28;19909;-80
2023/03/07 05:04:15;;;;;;;;;;;4.70;99.90;;;;;;5053035;28;19909;-81
2023/03/07 05:06:40;;;;;;;;;;;4.70;99.90;;;;;;5052263;28;19913;-81
2023/03/07 05:09:06;;;;;;;;;;;4.70;99.90;;;;;;5052381;28;19962;-81
2023/03/07 05:11:31;;;;;;;;;;;4.70;99.90;;;;;;5050817;28;20341;-81
2023/03/07 05:13:57;;;;;;;;;;;4.70;99.90;;;;;;5052382;28;19909;-80
2023/03/07 05:16:22;;;;;;;;;;;4.70;99.90;;;;;;5052120;28;20369;-81
2023/03/07 05:18:48;;;;;;;;;;;4.70;99.90;;;;;;5053783;28;19916;-81
2023/03/07 05:21:13;;;;;;;;;;;4.60;99.90;;;;;;5055203;28;19916;-82
2023/03/07 05:23:39;;;;;;;;;;;4.60;99.90;;;;;;5057198;28;19913;-82
2023/03/07 05:26:04;;;;;;;;;;;4.70;99.90;;;;;;5056557;28;19996;-81
2023/03/07 05:28:30;;;;;;;;;;;4.70;99.90;;;;;;5056255;28;19909;-81
2023/03/07 05:30:55;;;;;;;;;;;4.70;99.90;;;;;;5057372;28;19963;-81
2023/03/07 05:33:21;;;;;;;;;;;4.70;99.90;;;;;;5057779;28;19919;-81
2023/03/07 05:35:47;;;;;;;;;;;4.70;99.90;;;;;;5054777;28;19915;-81
2023/03/07 05:38:12;;;;;;;;;;;4.70;99.90;;;;;;5055866;28;20387;-81
2023/03/07 05:40:39;;;;;;;;;;;4.70;99.90;;;;;;5054715;28;20269;-81
2023/03/07 05:43:04;;;;;;;;;;;4.70;99.90;;;;;;5055676;28;19932;-80
2023/03/07 05:45:30;;;;;;;;;;;4.70;99.90;;;;;;5055526;28;19916;-81
2023/03/07 05:47:55;;;;;;;;;;;4.60;99.90;;;;;;5055385;28;19916;-81
2023/03/07 05:50:21;;;;;;;;;;;4.60;99.90;;;;;;5055886;28;19913;-81
2023/03/07 05:52:46;;;;;;;;;;;4.60;99.90;;;;;;5055534;28;19909;-81
2023/03/07 05:55:12;;;;;;;;;;;4.60;99.90;;;;;;5054405;28;19954;-81
2023/03/07 05:57:37;;;;;;;;;;;4.60;99.90;;;;;;5054495;28;19912;-81
2023/03/07 06:00:05;;;;;;;;;;;4.70;99.90;;;;;;5055676;28;19960;-81
2023/03/07 06:02:30;;;;;;;;;;;4.70;99.90;;;;;;5053943;28;19916;-81
2023/03/07 06:04:56;;;;;;;;;;;4.70;99.90;;;;;;5056006;28;19909;-81
2023/03/07 06:07:21;;;;;;;;;;;4.70;99.90;;;;;;5056528;28;19917;-81
2023/03/07 06:09:46;;;;;;;;;;;4.70;99.90;;;;;;5055926;28;19995;-81
2023/03/07 06:12:12;;;;;;;;;;;4.70;99.90;;;;;;5055474;28;19913;-81
2023/03/07 06:14:37;;;;;;;;;;;4.60;99.90;;;;;;5054098;28;19924;-81
2023/03/07 06:17:04;;;;;;;;;;;4.60;99.90;;;;;;5053786;28;20386;-81
2023/03/07 06:19:29;;;;;;;;;;;4.60;99.90;;;;;;5055314;28;19909;-81
2023/03/07 06:21:55;;;;;;;;;;;4.60;99.90;;;;;;5053994;28;19909;-81
2023/03/07 06:24:20;;;;;;;;;;;4.70;99.90;;;;;;5055917;28;19920;-81
2023/03/07 06:26:46;;;;;;;;;;;4.70;99.90;;;;;;5055504;28;19916;-83
2023/03/07 06:29:11;;;;;;;;;;;4.70;99.90;;;;;;5054931;28;19909;-80
2023/03/07 06:31:37;;;;;;;;;;;4.80;99.90;;;;;;5055405;28;20443;-82
2023/03/07 06:34:02;;;;;;;;;;;4.70;99.90;;;;;;5055190;28;19909;-82
2023/03/07 06:36:28;;;;;;;;;;;4.70;99.90;;;;;;5055631;28;19909;-82
2023/03/07 06:38:53;;;;;;;;;;;4.70;99.90;;;;;;5055209;28;19912;-82
2023/03/07 06:41:19;;;;;;;;;;;4.70;99.90;;;;;;5053614;28;19917;-81
2023/03/07 06:43:44;;;;;;;;;;;4.70;99.90;;;;;;5054815;28;19916;-81
2023/03/07 06:46:10;;;;;;;;;;;4.70;99.90;;;;;;5053367;28;19909;-82
2023/03/07 06:48:35;;;;;;;;;;;4.80;99.90;;;;;;5053699;28;19909;-82
2023/03/07 06:51:05;;;;;;;;;;;4.80;99.90;;;;;;5054552;28;19916;-82
2023/03/07 06:53:30;;;;;;;;;;;4.80;99.90;;;;;;5054986;28;19919;-82
2023/03/07 06:55:56;;;;;;;;;;;4.70;99.90;;;;;;5053249;28;19996;-81
2023/03/07 06:58:21;;;;;;;;;;;4.70;99.90;;;;;;5053057;28;19983;-81
2023/03/07 07:00:47;;;;;;;;;;;4.80;99.90;;;;;;5054377;28;20425;-82
2023/03/07 07:03:13;;;;;;;;;;;4.80;99.90;;;;;;5052880;28;19916;-82
2023/03/07 07:05:39;;;;;;;;;;;4.80;99.90;;;;;;5053121;28;19916;-82
2023/03/07 07:08:04;;;;;;;;;;;4.90;99.90;;;;;;5054056;28;19980;-82
2023/03/07 07:10:29;;;;;;;;;;;4.90;99.90;;;;;;5053058;28;19908;-82
2023/03/07 07:12:55;;;;;;;;;;;4.90;99.90;;;;;;5054276;28;20441;-83
2023/03/07 07:15:21;;;;;;;;;;;4.90;99.90;;;;;;5054277;28;19913;-82
2023/03/07 07:17:47;;;;;;;;;;;5.00;99.90;;;;;;5054276;28;20257;-82
2023/03/07 07:20:12;;;;;;;;;;;5.10;99.90;;;;;;5054190;28;19909;-82
2023/03/07 07:22:38;;;;;;;;;;;5.10;99.90;;;;;;5052600;28;19916;-82
2023/03/07 07:25:04;;;;;;;;;;;5.20;99.90;;;;;;5052741;28;19916;-82
2023/03/07 07:27:29;;;;;;;;;;;5.20;99.90;;;;;;5052724;28;19916;-83
2023/03/07 07:29:54;;;;;;;;;;;5.30;99.90;;;;;;5053898;28;19955;-82
2023/03/07 07:32:20;;;;;;;;;;;5.40;99.90;;;;;;5052469;28;19913;-82
2023/03/07 07:34:45;;;;;;;;;;;5.40;99.90;;;;;;5054429;28;19909;-82
2023/03/07 07:37:11;;;;;;;;;;;5.50;98.10;;;;;;5055000;28;20432;-81
2023/03/07 07:39:39;;;;;;;;;;;5.50;81.70;;;;;;5054491;28;20261;-82
2023/03/07 07:42:05;;;;;;;;;;;5.60;93.40;;;;;;5052403;28;19916;-82
2023/03/07 07:44:30;;;;;;;;;;;5.60;80.00;;;;;;5054193;28;19913;-83
2023/03/07 07:46:56;;;;;;;;;;;5.70;65.00;;;;;;5053429;28;20003;-82
2023/03/07 07:49:21;;;;;;;;;;;5.70;77.20;;;;;;5054305;28;20024;-82
2023/03/07 07:51:47;;;;;;;;;;;5.60;61.40;;;;;;5054409;28;19931;-82
2023/03/07 07:54:13;;;;;;;;;;;5.60;78.10;;;;;;5054340;28;19916;-82
2023/03/07 07:56:39;;;;;;;;;;;5.50;60.60;;;;;;5053436;28;19913;-81
2023/03/07 07:59:04;;;;;;;;;;;5.60;82.50;;;;;;5053445;28;20475;-82
2023/03/07 08:01:29;;;;;;;;;;;5.50;64.90;;;;;;5053241;28;19974;-81
2023/03/07 08:03:55;;;;;;;;;;;5.50;80.60;;;;;;5053594;28;19931;-81
2023/03/07 08:06:22;;;;;;;;;;;5.60;71.50;;;;;;5053089;28;19913;-81
2023/03/07 08:08:48;;;;;;;;;;;5.50;50.40;;;;;;5053226;28;19950;-79
2023/03/07 08:11:14;;;;;;;;;;;5.50;72.80;;;;;;5051711;28;19909;-81
2023/03/07 08:13:39;;;;;;;;;;;5.50;75.60;;;;;;5051872;28;19970;-81
2023/03/07 08:16:12;;;;;;;;;;;5.50;67.30;;;;;;5053004;28;19916;-81
2023/03/07 08:18:37;;;;;;;;;;;5.50;58.90;;;;;;5052584;28;19917;-81
2023/03/07 08:21:03;;;;;;;;;;;5.60;68.00;;;;;;5051466;28;19908;-81
2023/03/07 08:23:29;;;;;;;;;;;5.60;52.70;;;;;;5052887;28;19959;-82
2023/03/07 08:25:54;;;;;;;;;;;5.70;51.60;;;;;;5052746;28;19913;-81
2023/03/07 08:28:20;;;;;;;;;;;5.80;43.50;;;;;;5051478;28;19917;-81
2023/03/07 08:30:45;;;;;;;;;;;5.80;48.80;;;;;;5052785;28;19975;-81
2023/03/07 08:33:11;;;;;;;;;;;5.90;40.70;;;;;;5052671;28;19919;-81
2023/03/07 08:35:36;;;;;;;;;;;5.90;39.40;;;;;;5052732;28;19916;-81
2023/03/07 08:38:01;;;;;;;;;;;6.00;43.00;;;;;;5052619;28;20402;-81
2023/03/07 08:40:28;;;;;;;;;;;6.10;29.30;;;;;;5054157;28;19954;-82
2023/03/07 08:42:54;;;;;;;;;;;6.10;17.30;;;;;;5054128;28;19908;-83
2023/03/07 08:45:23;;;;;;;;;;;6.00;20.10;;;;;;5051521;28;20421;-80
2023/03/07 08:47:50;;;;;;;;;;;6.00;23.50;;;;;;5052767;28;20059;-80
2023/03/07 08:50:16;;;;;;;;;;;6.00;25.60;;;;;;5049251;28;19909;-81
2023/03/07 08:52:42;;;;;;;;;;;6.10;23.40;;;;;;5052602;28;19912;-80
2023/03/07 08:55:08;;;;;;;;;;;6.10;23.80;;;;;;5052404;28;19916;-80
2023/03/07 08:57:33;;;;;;;;;;;6.30;26.00;;;;;;5050908;28;19916;-80
2023/03/07 08:59:58;;;;;;;;;;;6.30;20.70;;;;;;5052093;28;19912;-80
2023/03/07 09:02:24;;;;;;;;;;;6.40;19.50;;;;;;5051883;28;19909;-79
2023/03/07 09:04:49;;;;;;;;;;;6.30;22.80;;;;;;5052381;28;20000;-80
2023/03/07 09:07:15;;;;;;;;;;;6.20;36.60;;;;;;5051879;28;19939;-80
2023/03/07 09:09:40;;;;;;;;;;;6.10;28.50;;;;;;5052974;28;19913;-80
2023/03/07 09:12:06;;;;;;;;;;;6.00;38.40;;;;;;5050689;28;19915;-80
2023/03/07 09:14:31;;;;;;;;;;;5.90;57.70;;;;;;5052704;28;19913;-80
2023/03/07 09:16:57;;;;;;;;;;;5.90;68.50;;;;;;5052237;28;19913;-80
2023/03/07 09:19:22;;;;;;;;;;;6.00;99.00;;;;;;5052831;28;20562;-80
2023/03/07 09:21:48;;;;;;;;;;;5.90;94.20;;;;;;5051649;28;19915;-79
2023/03/07 09:24:14;;;;;;;;;;;5.90;99.70;;;;;;5052123;28;19915;-79
2023/03/07 09:26:39;;;;;;;;;;;6.00;99.90;;;;;;5051982;28;19908;-79
2023/03/07 09:29:05;;;;;;;;;;;6.10;99.90;;;;;;5050978;28;19909;-80
2023/03/07 09:31:30;;;;;;;;;;;6.20;99.90;;;;;;5050189;28;19912;-80
2023/03/07 09:33:56;;;;;;;;;;;6.20;97.80;;;;;;5050930;28;19909;-80
2023/03/07 09:42:23;;;;;;;;;;;6.40;59.00;;;;;;5011648;28;20316;-81
2023/03/07 09:45:27;;;;;;;;;;;6.80;85.80;;;;;;5012052;28;19910;-81
2023/03/07 09:50:42;;;;;;;;;;;6.90;40.30;;;;;;5051784;28;19913;-82
2023/03/07 09:56:33;;;;;;;;;;;6.90;15.40;;;;;;5051024;28;19917;-82
2023/03/07 09:59:21;;;;;;;;;;;7.00;7.20;;;;;;5051905;28;19920;-81
2023/03/07 10:01:48;;;;;;;;;;;7.20;23.00;;;;;;5050994;28;19909;-80
2023/03/07 10:04:18;;;;;;;;;;;7.20;3.40;;;;;;5050763;28;19909;-83
2023/03/07 10:06:47;;;;;;;;;;;7.20;9.30;;;;;;5053960;28;19909;-82
2023/03/07 10:09:17;;;;;;;;;;;7.10;10.50;;;;;;5055458;28;19995;-83
2023/03/07 10:11:49;;;;;;;;;;;7.10;28.60;;;;;;5054321;28;20042;-83
2023/03/07 10:14:36;;;;;;;;;;;7.00;34.80;;;;;;5054839;28;19909;-83
2023/03/07 10:17:21;;;;;;;;;;;7.00;35.80;;;;;;5053624;28;19920;-83
2023/03/07 10:19:46;;;;;;;;;;;7.10;32.90;;;;;;5055089;28;20066;-82
2023/03/07 10:22:30;;;;;;;;;;;7.20;36.60;;;;;;5054955;28;19959;-82
2023/03/07 10:25:11;;;;;;;;;;;7.00;22.30;;;;;;5053718;28;19909;-81
2023/03/07 10:27:37;;;;;;;;;;;6.90;55.20;;;;;;5054955;28;19909;-81
2023/03/07 10:30:09;;;;;;;;;;;6.90;94.00;;;;;;5055054;28;19913;-79
2023/03/07 10:32:34;;;;;;;;;;;6.90;83.70;;;;;;5054490;28;19909;-81
2023/03/07 10:35:15;;;;;;;;;;;6.80;68.40;;;;;;5054686;28;20034;-81
2023/03/07 10:38:00;;;;;;;;;;;6.70;86.20;;;;;;5053006;28;19921;-81
2023/03/07 10:40:25;;;;;;;;;;;6.50;66.20;;;;;;5053329;28;19912;-81
2023/03/07 10:42:51;;;;;;;;;;;6.40;86.40;;;;;;5054144;28;19912;-81
2023/03/07 10:45:17;;;;;;;;;;;6.50;99.90;;;;;;5054435;28;20292;-82
2023/03/07 10:47:43;;;;;;;;;;;6.50;98.80;;;;;;5054305;28;19916;-82
2023/03/07 10:50:08;;;;;;;;;;;6.50;95.70;;;;;;5052652;28;19913;-83
2023/03/07 10:52:37;;;;;;;;;;;6.70;99.90;;;;;;5052505;28;20017;-83
2023/03/07 10:55:22;;;;;;;;;;;6.60;99.90;;;;;;5053274;28;20368;-83
2023/03/07 10:57:47;;;;;;;;;;;6.70;93.30;;;;;;5054173;28;19913;-81
2023/03/07 11:00:16;;;;;;;;;;;6.60;99.90;;;;;;5054063;28;19924;-81
2023/03/07 11:02:45;;;;;;;;;;;6.60;99.90;;;;;;5052044;28;19909;-83
2023/03/07 11:05:20;;;;;;;;;;;6.60;99.90;;;;;;5058903;28;19909;-81
2023/03/07 11:07:45;;;;;;;;;;;6.60;99.90;;;;;;5054185;28;19909;-82
2023/03/07 11:10:31;;;;;;;;;;;6.50;99.90;;;;;;5053826;28;20022;-83
2023/03/07 11:12:57;;;;;;;;;;;6.50;99.90;;;;;;5053701;28;20386;-82
2023/03/07 11:15:23;;;;;;;;;;;6.30;99.90;;;;;;5053684;28;19913;-83
2023/03/07 11:17:50;;;;;;;;;;;6.30;99.90;;;;;;5054024;28;19958;-83
2023/03/07 11:20:27;;;;;;;;;;;6.10;99.90;;;;;;5053746;28;19940;-83
2023/03/07 11:23:07;;;;;;;;;;;6.10;99.90;;;;;;5053277;28;19916;-81
2023/03/07 11:25:34;;;;;;;;;;;6.00;99.90;;;;;;5053646;28;19908;-83
2023/03/07 11:27:59;;;;;;;;;;;5.90;99.90;;;;;;5053434;28;19913;-83
2023/03/07 11:30:33;;;;;;;;;;;5.80;99.90;;;;;;5053440;28;19913;-83
2023/03/07 11:33:21;;;;;;;;;;;5.80;99.90;;;;;;5053258;28;19909;-82
2023/03/07 11:35:47;;;;;;;;;;;5.60;97.60;;;;;;5052869;28;19908;-82
2023/03/07 11:39:11;;;;;;;;;;;5.50;99.90;;;;;;5086136;22;20443;-82
2023/03/07 11:41:43;;;;;;;;;;;5.40;99.90;;;;;;5033428;28;19908;-81
2023/03/07 11:44:27;;;;;;;;;;;5.40;99.90;;;;;;5051334;28;19916;-81
2023/03/07 11:50:30;;;;;;;;;;;5.40;99.90;;;;;;5053418;28;19935;-81
2023/03/07 11:53:25;;;;;;;;;;;5.30;99.90;;;;;;5052630;28;19909;-82
2023/03/07 11:56:14;;;;;;;;;;;5.40;99.90;;;;;;5052822;28;19951;-82
2023/03/07 11:58:58;;;;;;;;;;;5.30;99.90;;;;;;5053257;28;19974;-82
2023/03/07 12:01:27;;;;;;;;;;;5.40;99.90;;;;;;5052402;28;19908;-82
2023/03/07 12:04:18;;;;;;;;;;;5.50;99.90;;;;;;5052762;28;19909;-82
2023/03/07 12:06:49;;;;;;;;;;;5.40;99.90;;;;;;5052132;28;19909;-82
2023/03/07 12:09:17;;;;;;;;;;;5.30;94.00;;;;;;5052971;28;19948;-82
2023/03/07 12:12:08;;;;;;;;;;;5.20;95.80;;;;;;5052153;28;20253;-82
2023/03/07 12:14:53;;;;;;;;;;;5.20;93.20;;;;;;5052968;28;19935;-82
2023/03/07 12:17:41;;;;;;;;;;;5.00;84.50;;;;;;5052380;28;20315;-82
2023/03/07 12:20:13;;;;;;;;;;;5.10;96.80;;;;;;5051840;28;19916;-82
2023/03/07 12:22:42;;;;;;;;;;;5.10;93.60;;;;;;5050715;28;19908;-83
2023/03/07 12:25:15;;;;;;;;;;;5.10;95.40;;;;;;5052558;28;19908;-82
2023/03/07 12:27:44;;;;;;;;;;;5.10;99.60;;;;;;5051945;28;19909;-82
2023/03/07 12:30:15;;;;;;;;;;;5.20;99.90;;;;;;5052535;28;19916;-82
2023/03/07 12:32:40;;;;;;;;;;;5.00;89.40;;;;;;5067335;28;19909;-82
2023/03/07 12:35:25;;;;;;;;;;;5.00;96.50;;;;;;5051309;28;19949;-82
2023/03/07 12:38:09;;;;;;;;;;;5.00;91.60;;;;;;5050949;28;19967;-82
2023/03/07 12:40:39;;;;;;;;;;;5.00;97.50;;;;;;5052040;28;20392;-83
2023/03/07 12:43:23;;;;;;;;;;;5.10;97.40;;;;;;5051707;28;19909;-82
2023/03/07 12:45:51;;;;;;;;;;;5.10;92.70;;;;;;5052204;28;19915;-82
2023/03/07 12:48:29;;;;;;;;;;;4.90;58.90;;;;;;5051221;28;19909;-81
2023/03/07 12:50:58;;;;;;;;;;;4.70;74.50;;;;;;5051992;28;19999;-81
2023/03/07 12:53:27;;;;;;;;;;;4.80;96.40;;;;;;5052065;28;19909;-81
2023/03/07 12:56:01;;;;;;;;;;;4.90;98.60;;;;;;5052369;28;20288;-83
2023/03/07 12:58:38;;;;;;;;;;;5.10;99.90;;;;;;5052373;28;19912;-82
2023/03/07 13:01:13;;;;;;;;;;;5.10;91.60;;;;;;5051635;28;19909;-82
2023/03/07 13:03:57;;;;;;;;;;;5.10;86.10;;;;;;5052282;28;19915;-82
2023/03/07 13:06:23;;;;;;;;;;;5.30;95.90;;;;;;5050794;28;19913;-82
2023/03/07 13:08:50;;;;;;;;;;;5.20;76.30;;;;;;5052290;28;19908;-82
2023/03/07 13:11:17;;;;;;;;;;;5.20;62.50;;;;;;5051581;28;20283;-82
2023/03/07 13:13:42;;;;;;;;;;;5.30;63.50;;;;;;5052238;28;19916;-81
2023/03/07 13:16:10;;;;;;;;;;;5.40;57.60;;;;;;5051824;28;20368;-81
2023/03/07 13:18:35;;;;;;;;;;;5.30;50.60;;;;;;5052227;28;20292;-82
2023/03/07 13:21:08;;;;;;;;;;;5.30;54.60;;;;;;5051566;28;19935;-82
2023/03/07 13:23:34;;;;;;;;;;;5.30;53.70;;;;;;5051115;28;20364;-82
2023/03/07 13:26:01;;;;;;;;;;;5.40;56.50;;;;;;5050906;28;20031;-82
2023/03/07 13:28:31;;;;;;;;;;;5.40;56.50;;;;;;5051810;28;19947;-82
2023/03/07 13:31:11;;;;;;;;;;;5.50;61.70;;;;;;5051778;28;19925;-83
2023/03/07 13:33:36;;;;;;;;;;;5.50;50.30;;;;;;5051066;28;20011;-82
2023/03/07 13:36:02;;;;;;;;;;;5.50;48.60;;;;;;5052303;28;20002;-82
2023/03/07 13:43:34;;;;;;;;;;;5.30;35.40;;;;;;5054487;28;19924;-84
2023/03/07 13:46:01;;;;;;;;;;;5.30;44.60;;;;;;5056190;28;20392;-85
2023/03/07 13:48:26;;;;;;;;;;;5.20;41.50;;;;;;5056031;28;19939;-83
2023/03/07 13:50:55;;;;;;;;;;;5.10;33.10;;;;;;5055417;28;19909;-83
2023/03/07 13:53:26;;;;;;;;;;;4.90;38.70;;;;;;5055196;28;19916;-83
2023/03/07 13:56:23;;;;;;;;;;;5.00;65.50;;;;;;5055519;28;19913;-83
2023/03/07 13:58:52;;;;;;;;;;;5.00;72.20;;;;;;5054178;28;20311;-83
2023/03/07 14:01:19;;;;;;;;;;;5.10;62.70;;;;;;5054774;28;20272;-83
2023/03/07 14:03:48;;;;;;;;;;;4.90;48.20;;;;;;5055432;28;20000;-83
2023/03/07 14:06:17;;;;;;;;;;;4.90;48.90;;;;;;5054795;28;19967;-82
2023/03/07 14:08:43;;;;;;;;;;;4.80;40.30;;;;;;5055649;28;20376;-82
2023/03/07 14:11:15;;;;;;;;;;;4.80;47.90;;;;;;5054688;28;19908;-82
2023/03/07 14:13:47;;;;;;;;;;;4.80;56.80;;;;;;5055240;28;20331;-83
2023/03/07 14:16:13;;;;;;;;;;;4.70;55.20;;;;;;5055517;28;19909;-83
2023/03/07 14:18:47;;;;;;;;;;;4.70;53.90;;;;;;5053401;28;20000;-83
2023/03/07 14:21:42;;;;;;;;;;;4.70;54.70;;;;;;5053215;28;20339;-83
2023/03/07 14:24:22;;;;;;;;;;;4.60;51.80;;;;;;5054666;28;19962;-82
2023/03/07 14:26:57;;;;;;;;;;;4.60;58.40;;;;;;5053851;28;19909;-82
2023/03/07 14:29:24;;;;;;;;;;;4.50;56.90;;;;;;5053561;28;19909;-83
2023/03/07 14:31:55;;;;;;;;;;;4.50;54.50;;;;;;5054177;28;19915;-82
2023/03/07 14:34:26;;;;;;;;;;;4.40;42.50;;;;;;5054684;28;19935;-82
2023/03/07 14:36:56;;;;;;;;;;;4.30;42.50;;;;;;5053307;28;19940;-82
2023/03/07 14:39:22;;;;;;;;;;;4.20;48.70;;;;;;5054775;28;20331;-82
2023/03/07 14:42:27;;;;;;;;;;;4.20;56.10;;;;;;5052393;28;19924;-82
2023/03/07 14:45:11;;;;;;;;;;;4.10;56.40;;;;;;5051895;28;19909;-82
2023/03/07 14:47:36;;;;;;;;;;;4.00;55.30;;;;;;5052803;28;19908;-82
2023/03/07 14:50:19;;;;;;;;;;;4.00;59.90;;;;;;5053354;28;19915;-83
2023/03/07 14:52:45;;;;;;;;;;;3.90;65.90;;;;;;5052402;28;20372;-84
2023/03/07 14:55:18;;;;;;;;;;;3.90;68.30;;;;;;5053255;28;19909;-83
2023/03/07 14:57:48;;;;;;;;;;;3.90;70.70;;;;;;5032838;28;19917;-84
2023/03/07 15:00:24;;;;;;;;;;;3.90;59.40;;;;;;5045173;28;19913;-83